KNMI Weerbulletins

Hier vind u de KMNI verwachtingen en de waarnemingen

Bron: KNMI website
Laatste update op 21-01-2021 om 13:09
ZCZC
FBNL50 EHDB 211116
WEERBULLETIN VOOR DE LUCHTVAART
.
GELDIG 211200/211800 UTC
.
SITUATIE: AAN DE ZUIDFLANK VAN EEN LAGEDRUKGEBIED BOVEN DE NOORDZEE
TER HOOGTE VAN SCHOTLAND VOERT EEN STEVIGE ZUIDWESTELIJKE STROMING
MARITIEM POLAIRE LUCHT AAN. DE LUCHT IS ONSTABIEL VAN OPBOUW TOT 6000
VT, IN DE NOORDWESTELIJKE HELFT LOKAAL TOT BOVEN FL100. EEN W-O
GEORIENTEERDE FRONTALE ZONE BEREIKT AAN HET EIND VAN DE PERIODE HET
UITERSTE ZUIDEN.
.
SIGNIFICANT WEER: VOORAL IN DE NOORDWESTELIJKE HELFT MATIGE
TURBULENTIE EN ENKELE GEISOLEERDE MATIGE REGENBUIEN, MET EEN KLEINE
KANS ONWEER EN/OF KORRELHAGEL. BIJ DE FRONTALE ZONE LICHTE TOT MATIGE
REGEN.
.
WIND: ZUIDWEST 15-20 KN, IN DE KUSTGEBIEDEN 20-25 KN, LANGS DE
WESTKUST EN BOVEN HET IJSSELMEER 25-30 KN. IN HET WADDENGEBIED 30-35
KN. UITSCHIETERS 10-15 KN BOVEN DE GEMIDDELDE WIND. TEGEN HET EIND
VAN DE PERIODE NEEMT DE VAN HET ZUIDEN UIT 5-10 KN AF.
.
BEWOLKING: SCT CU 2000-3000 VT, TOPPEN 6000 VT. BIJ EEN BUI FEW CB
2000-2500 VT, TOPPEN BOVEN FL100. BIJ DE FRONTALE ZONE BKN/OVC SC/NS
1500-2500 VT, TOPPEN BOVEN FL100.
.
ZICHT: MEER DAN 10 KM, IN NEERSLAG 5-8 KM, MOGELIJK 3-5 KM.
.
NULGRADEN NIVEAU: 2000-3000 VT.
.
HOOGTEWINDEN EN TEMPERATUREN:
       12 UTC:       18 UTC:
0500VT 210/25-45 +05 200/20-35 +06
1500VT 220/35-50 +02 210/30-45 +04
3000VT 230/40-60 -01 230/35-50 +00
FL 050 250/45-60 -03 240/35-50 -03
FL 100 240/45-65 -12 230/35-50 -11
HOOGSTE WINDSNELHEDEN IN HET NOORDEN, DE LAAGSTE IN HET ZUIDEN.
.
MAX. TEMPERATUUR: 8 GRADEN CELSIUS.
.
VOORUITZICHTEN VOOR DE PERIODE VAN 211800/220000: DE FRONTALE ZONE
KANTELT EN KRIJGT EEN ZW-NO ORIENTATIE. AAN HET EIND VAN DE PERIODE
EN LIGT DE ZONE BOVEN HET WESTEN EN NOORDEN EN ONTSTAAT ER OP STEEDS
MEER PLAATSEN ST. TEN ZUIDOOSTEN VAN DE FRONTALE ZONE KUNNEN ENKELE
MATIGE REGENBUIEN VOORKOMEN EN NEEMT DE WIND WEER TOE NAAR 15-20 KN.
.
DAGLICHTPERIODE: 07.20 TOT 16.23 UTC.=
NNNN
Bron: KNMI website
Laatste update op 21-01-2021 om 13:09
ZCZC
FT210500 EHEH     EINDHOVEN/EINDHOVEN   NLD   22 m.
TAF EHEH 210501Z 2106/2212 23020G30KT 9999 SCT020 OVC040
    BECMG 2118/2121 20007KT SCT020 OVC050
    TEMPO 2121/2204 29015KT 3500 RADZ FEW003 SCT006 BKN010
    BECMG 2202/2204 23008KT
    PROB40 TEMPO 2204/2206 SCT008 BKN012
    BECMG 2205/2207 SCT020=
ZCZC
FC210900 EHKD RRC DE KOOY/DE KOOY   NLD   1 m.
TAF EHKD 210908Z 2110/2122 22025G35KT 9999 SCT025
    PROB40 TEMPO 2111/2115 23030G48KT
    TEMPO 2112/2121 SCT018CB BKN025
    BECMG 2019/2021 20015KT=
ZCZC
FC210900 EHGR RRB GILZE-RIJEN/GILZE-RIJEN   NLD   14 m.
TAF EHGR 210908Z 2110/2122 20017G28KT 9999 SCT022
    TEMPO 2120/2122 3500 RADZ SCT006 BKN010=
ZCZC
FC210900 EHLW RRD LEEUWARDEN/LEEUWARDEN   NLD   1 m.
TAF EHLW 210908Z 2110/2122 21020G30KT 9999 SCT028
    TEMPO 2113/2121 SCT018CB BKN025
    BECMG 2118/2120 20020KT=
ZCZC
FC210900 EHVK RRE VOLKEL/VOLKEL   NLD   21 m.
TAF EHVK 210908Z 2110/2122 20017G27KT 9999 SCT030
    BECMG 2118/2120 16012KT
    TEMPO 2120/2122 3500 RADZ SCT006 BKN010=
ZCZC
FC210900 EHWO RRA WOENSDRECHT/WOENSDRECHT   NLD   19 m.
TAF EHWO 210908Z 2110/2122 21012G22KT 9999 SCT022
    PROB30 TEMPO 2110/2114 FEW015 SCT020CB BKN030
    TEMPO 2119/2122 3500 RADZ SCT006 BKN010=
ZCZC
FT211100 EHLE     LELYSTAD/LELYSTAD   NLD   -3 m.
TAF EHLE 211118Z 2112/2218 21020G30KT 9999 SCT022
    PROB30 TEMPO 2112/2119 22023G35KT 7000 -SHRA FEW020CB
    BKN022
    BECMG 2116/2119 20015KT
    BECMG 2119/2122 17010KT 7000 -RA BKN018
    TEMPO 2121/2205 3000 RADZ BKN006
    BECMG 2122/2201 29008KT
    BECMG 2203/2206 26012KT 9999 NSW SCT020
    BECMG 2215/2218 23008KT=
ZCZC
FT211100 EHAM     AMSTERDAM/SCHIPHOL   NLD   -3 m.
TAF EHAM 211117Z 2112/2218 21020G30KT 9999 SCT022
    PROB30 TEMPO 2112/2118 22023G35KT 7000 -SHRA FEW020CB
    BKN022
    BECMG 2116/2119 20015KT
    BECMG 2118/2121 17010KT 7000 -RA BKN018
    TEMPO 2120/2204 3000 RADZ BKN006
    BECMG 2122/2201 29008KT
    BECMG 2202/2205 26012KT 9999 NSW SCT020
    BECMG 2215/2218 23008KT=
ZCZC
FT211100 EHGG     GRONINGEN/EELDE   NLD   5 m.
TAF EHGG 211116Z 2112/2218 21022G35KT 9999 SCT030
    PROB30 TEMPO 2114/2118 4000 SHRA FEW020CB BKN030
    BECMG 2117/2120 20012KT
    BECMG 2121/2124 VRB03KT 7000 -RA BKN012
    TEMPO 2200/2204 4000 RA BKN006
    PROB40 TEMPO 2201/2204 2500 RADZ BKN004
    BECMG 2202/2205 24012KT 9999 NSW SCT030
    TEMPO 2211/2215 25015G25KT=
ZCZC
FT211100 EHBK     MAASTRICHT/MAASTRICHT-AACHEN   NLD   114 m.
TAF EHBK 211116Z 2112/2218 23020G30KT 9999 SCT025
    BECMG 2117/2119 17010KT 6000 RA
    BECMG 2120/2122 21022G35KT 9999 NSW
    TEMPO 2122/2202 6000 SHRA RA SCT025CB
    TEMPO 2202/2205 28025G35KT 4000 RADZ BKN008
    BECMG 2203/2205 25008KT=
ZCZC
FT211100 EHRD CCA ROTTERDAM/THE HAGUE AIRPORT   NLD   -5 m.
TAF COR EHRD 211128Z 2112/2218 21020G30KT 9999 SCT022
    PROB30 TEMPO 2112/2118 22023G35KT 7000 -SHRA FEW020CB
    BKN022
    BECMG 2115/2118 20015KT
    BECMG 2117/2120 17010KT 7000 -RA BKN018
    TEMPO 2119/2204 3000 RADZ BKN006
    BECMG 2121/2124 29010KT
    BECMG 2202/2205 26012KT 9999 NSW SCT020
    BECMG 2215/2218 23008KT=
Bron: KNMI website
Laatste update op 21-01-2021 om 13:09
ZCZC
SA211125 EHFS     VLISSINGEN AWS   NLD   8 m.
METAR EHFS 211125Z AUTO 21027KT 9999 FEW023/// 07/04 Q0990=
ZCZC
SA211125 EHSG     BSA   NLD   43 m.
METAR EHSG 211125Z AUTO 22034KT //// // FEW014/// SCT018/// BKN026///
08/04 Q0988 RE//=
ZCZC
SA211155 EHKD     DE KOOY/DE KOOY   NLD   1 m.
METAR EHKD 211155Z AUTO 21029G40KT 180V240 9999 FEW014 07/04 Q0985
BLU TEMPO 23030G48KT 3500 SHRAGS SCT018CB BKN025=
ZCZC
SA211155 EHFD     F3-FB-1   NLD   50 m.
METAR EHFD 211155Z AUTO /////KT 9999 // FEW021/// SCT024/// BKN028///
06/01 Q0975 RE//=
ZCZC
SA211155 EHAM     AMSTERDAM/SCHIPHOL   NLD   -3 m.
METAR EHAM 211155Z 21024KT 9999 SCT023 07/03 Q0988 NOSIG=
ZCZC
SA211155 EHVL     VLIELAND   NLD   10 m.
METAR EHVL 211155Z AUTO 21030KT 9999 FEW017 SCT030 08/04 Q0984 BLU=
ZCZC
SA211155 EHJR     K13-A   NLD   37 m.
METAR EHJR 211155Z AUTO ///42KT //// // ///////// 07/02 Q0982 RE//
W08/H42=
ZCZC
SA211155 EHLE     LELYSTAD/LELYSTAD   NLD   -3 m.
METAR EHLE 211155Z AUTO 21023G36KT 170V250 9999 SCT025 BKN028 BKN032
08/03 Q0988 NOSIG=
ZCZC
SA211155 EHLW     LEEUWARDEN/LEEUWARDEN   NLD   1 m.
METAR EHLW 211155Z AUTO 20020G31KT 170V230 9999 FEW023 SCT026 BKN033
07/03 Q0986
BLACKBLU=
ZCZC
SA211155 EHDL     ARNHEM/DEELEN   NLD   48 m.
METAR EHDL 211155Z AUTO 20018KT 140V250 9999 SCT023 BKN027 OVC030
07/03 Q0991 WHT=
ZCZC
SA211155 EHGG     GRONINGEN/EELDE   NLD   5 m.
METAR EHGG 211155Z AUTO 21021KT 180V240 9999 SCT030 BKN038 BKN048
08/03 Q0987 NOSIG=
ZCZC
SA211155 EHSC     LICHTEILAND GOEREE   NLD   22 m.
METAR EHSC 211155Z AUTO 22039KT 9999 ///////// 07/03 Q0988 REDZ
W06/H23=
ZCZC
SA211155 EHSA     EURO PLATFORM   NLD   19 m.
METAR EHSA 211155Z AUTO 20036KT 9999 ///////// 08/04 Q0988 W06/H31=
ZCZC
SA211155 EHWO     WOENSDRECHT/WOENSDRECHT   NLD   19 m.
METAR EHWO 211155Z AUTO 22016G28KT 170V250 9999 SCT021 BKN025 OVC100
08/03 Q0991
WHT TEMPO SCT019 BKN023 BKN028=
ZCZC
SA211155 EHRD     ROTTERDAM/THE HAGUE AIRPORT   NLD   -5 m.
METAR EHRD 211155Z AUTO 21022G32KT 9999 FEW022 08/04 Q0989 NOSIG=
ZCZC
SA211155 EHGR     GILZE-RIJEN/GILZE-RIJEN   NLD   14 m.
METAR EHGR 211155Z AUTO 21012G24KT 170V250 9999 SCT022 BKN025 08/03
Q0991
WHT TEMPO 21016G26KT=
ZCZC
SA211155 EHEH     EINDHOVEN/EINDHOVEN   NLD   22 m.
METAR EHEH 211155Z AUTO 20018KT 170V230 9999 BKN025 OVC028 08/03
Q0992
BLU TEMPO 23020G30KT=
ZCZC
SA211155 EHVK     VOLKEL/VOLKEL   NLD   21 m.
METAR EHVK 211155Z AUTO 21019KT 170V240 9999 SCT025 OVC029 08/03
Q0992 BLU=
ZCZC
SA211155 EHBK     MAASTRICHT/MAASTRICHT-AACHEN   NLD   114 m.
METAR EHBK 211155Z AUTO 21022G33KT 180V240 9999 SCT023 SCT028 08/03
Q0994 NOSIG=
ZCZC
SA211155 EHFZ     F16-A   NLD   43 m.
METAR EHFZ 211155Z NIL=
ZCZC
SA211155 EHKV     K14-FA-1C   NLD   41 m.
METAR EHKV 211155Z AUTO 23045KT 9999 FEW022 07/03 Q0981=
ZCZC
SA211155 EHMG     L9-FF-1   NLD   44 m.
METAR EHMG 211155Z AUTO 22046KT 9999 FEW022 SCT027 BKN032 08/03
Q0983=
ZCZC
SA211155 EHMA     AWG-1   NLD   40 m.
METAR EHMA 211155Z AUTO 21036G46KT 180V300 9999 -DZ FEW020 SCT027
BKN032 07/03 Q0984=
ZCZC
SA211155 EHDV     D15-FA-1   NLD   42 m.
METAR EHDV 211155Z AUTO 23040KT 9999 FEW020/// BKN024/// BKN029///
06/01 Q0974=
ZCZC
SA211155 EHAK     A12-CPP   NLD   48 m.
METAR EHAK 211155Z AUTO 21041KT 9999 FEW021/// SCT026/// BKN031///
06/01 Q0970=
ZCZC
SA211155 EHQE     HOORN-A   NLD   50 m.
METAR EHQE 211155Z AUTO 20035KT 9999 FEW024 SCT029 BKN035 08/03
Q0983=
ZCZC
SA211155 EHJA     J6-A   NLD   45 m.
METAR EHJA 211155Z AUTO 22044G55KT //// // FEW016/// SCT021///
BKN025/// 06/02 Q0979 RE//=
ZCZC
SA211155 EHPG     P11-B   NLD   41 m.
METAR EHPG 211155Z AUTO 22045KT 9999 FEW025 09/03 Q0984=
ZCZC
SA211155 EHHW     BUITENGAATS/BG-OHVS2      42 m.
METAR EHHW 211155Z AUTO 22042G52KT 9999 FEW022/// SCT025/// BKN032///
07/03 Q0984=